KLS017 WIII-WMKK
Flight info
| Callsign | KLS017 |
|---|---|
| Flight time | N/A |
| Altitude | 36000 |
| Route | DOLTA2A/07L DOLTA A585 PKU/N0471F370 N633 SALAX SALAX1G |
| Aircraft | E195/M-SDE3GILORVW/S |
Departure
| Time | N/A |
|---|---|
| Airport | Soekarno-Hatta International Airport (WIII) |
Arrival
| Time | 2026-05-06 14:39 |
|---|---|
| Airport | Kuala Lumpur International Airport (WMKK) |
| Time | Latitude | Longitude | Altitude | Speed | Heading |
|---|---|---|---|---|---|
| 2026-05-06 13:08 | -5.38891 | 106.11193 | 22045 ft | 395 kts | 327° |
| 2026-05-06 13:08 | -5.36639 | 106.09592 | 22365 ft | 396 kts | 327° |
| 2026-05-06 13:08 | -5.34361 | 106.07972 | 22705 ft | 398 kts | 327° |
| 2026-05-06 13:08 | -5.32090 | 106.06356 | 23028 ft | 399 kts | 327° |
| 2026-05-06 13:09 | -5.29829 | 106.04748 | 23337 ft | 401 kts | 327° |
| 2026-05-06 13:09 | -5.27555 | 106.03133 | 23614 ft | 404 kts | 327° |
| 2026-05-06 13:09 | -5.25247 | 106.01492 | 23902 ft | 406 kts | 327° |
| 2026-05-06 13:09 | -5.22922 | 105.99838 | 24190 ft | 408 kts | 327° |
| 2026-05-06 13:10 | -5.20612 | 105.98197 | 24496 ft | 409 kts | 327° |
| 2026-05-06 13:10 | -5.18263 | 105.96527 | 24807 ft | 411 kts | 327° |
| 2026-05-06 13:10 | -5.15950 | 105.94883 | 25108 ft | 412 kts | 327° |
| 2026-05-06 13:10 | -5.13598 | 105.93211 | 25407 ft | 413 kts | 327° |
| 2026-05-06 13:11 | -5.11172 | 105.91687 | 25663 ft | 413 kts | 333° |
| 2026-05-06 13:11 | -5.08648 | 105.90250 | 25910 ft | 416 kts | 333° |
| 2026-05-06 13:11 | -5.06124 | 105.88812 | 26162 ft | 418 kts | 333° |
| 2026-05-06 13:11 | -5.03577 | 105.87361 | 26407 ft | 420 kts | 332° |
| 2026-05-06 13:12 | -5.01049 | 105.85921 | 26655 ft | 422 kts | 332° |
| 2026-05-06 13:12 | -4.98490 | 105.84463 | 26910 ft | 424 kts | 332° |
| 2026-05-06 13:12 | -4.95888 | 105.82981 | 27163 ft | 425 kts | 333° |
| 2026-05-06 13:12 | -4.93313 | 105.81515 | 27412 ft | 427 kts | 332° |
| 2026-05-06 13:13 | -4.90720 | 105.80038 | 27681 ft | 428 kts | 332° |
| 2026-05-06 13:13 | -4.88141 | 105.78569 | 27951 ft | 429 kts | 332° |
| 2026-05-06 13:13 | -4.85530 | 105.77081 | 28208 ft | 430 kts | 332° |
| 2026-05-06 13:13 | -4.82922 | 105.75597 | 28441 ft | 431 kts | 332° |
| 2026-05-06 13:14 | -4.80293 | 105.74101 | 28660 ft | 433 kts | 332° |
| 2026-05-06 13:14 | -4.77657 | 105.72599 | 28879 ft | 435 kts | 332° |
| 2026-05-06 13:14 | -4.75033 | 105.71106 | 29088 ft | 437 kts | 332° |
| 2026-05-06 13:14 | -4.72367 | 105.69589 | 29317 ft | 439 kts | 332° |
| 2026-05-06 13:15 | -4.69693 | 105.68067 | 29538 ft | 441 kts | 332° |
| 2026-05-06 13:15 | -4.67032 | 105.66552 | 29750 ft | 443 kts | 332° |
| 2026-05-06 13:15 | -4.64358 | 105.65031 | 29965 ft | 444 kts | 332° |
| 2026-05-06 13:15 | -4.61653 | 105.63492 | 30195 ft | 446 kts | 332° |
| 2026-05-06 13:16 | -4.58942 | 105.61950 | 30417 ft | 447 kts | 332° |
| 2026-05-06 13:16 | -4.56206 | 105.60393 | 30631 ft | 448 kts | 332° |
| 2026-05-06 13:16 | -4.53497 | 105.58852 | 30837 ft | 450 kts | 332° |
| 2026-05-06 13:16 | -4.50746 | 105.57287 | 31041 ft | 451 kts | 332° |
| 2026-05-06 13:17 | -4.48028 | 105.55741 | 31262 ft | 452 kts | 332° |
| 2026-05-06 13:17 | -4.45266 | 105.54170 | 31517 ft | 452 kts | 331° |
| 2026-05-06 13:17 | -4.42526 | 105.52612 | 31792 ft | 452 kts | 332° |
| 2026-05-06 13:17 | -4.39789 | 105.51057 | 32079 ft | 451 kts | 331° |
| 2026-05-06 13:18 | -4.37060 | 105.49505 | 32345 ft | 450 kts | 331° |
| 2026-05-06 13:18 | -4.34305 | 105.47938 | 32623 ft | 450 kts | 331° |
| 2026-05-06 13:18 | -4.31557 | 105.46377 | 32922 ft | 449 kts | 331° |
| 2026-05-06 13:18 | -4.28806 | 105.44813 | 33226 ft | 448 kts | 331° |
| 2026-05-06 13:19 | -4.26104 | 105.43278 | 33540 ft | 446 kts | 331° |
| 2026-05-06 13:19 | -4.23407 | 105.41744 | 33857 ft | 445 kts | 331° |
| 2026-05-06 13:19 | -4.20701 | 105.40207 | 34166 ft | 444 kts | 331° |
| 2026-05-06 13:19 | -4.18015 | 105.38681 | 34476 ft | 442 kts | 331° |
| 2026-05-06 13:20 | -4.15353 | 105.37168 | 34776 ft | 441 kts | 331° |
| 2026-05-06 13:20 | -4.12669 | 105.35644 | 35079 ft | 439 kts | 331° |
| 2026-05-06 13:20 | -4.10015 | 105.34136 | 35366 ft | 438 kts | 331° |
| 2026-05-06 13:20 | -4.07337 | 105.32615 | 35628 ft | 437 kts | 331° |
| 2026-05-06 13:21 | -4.04681 | 105.31107 | 35841 ft | 435 kts | 331° |
| 2026-05-06 13:21 | -3.99318 | 105.28061 | 35866 ft | 448 kts | 331° |
| 2026-05-06 13:22 | -3.93819 | 105.24938 | 35860 ft | 460 kts | 331° |
| 2026-05-06 13:22 | -3.88154 | 105.21738 | 35847 ft | 467 kts | 332° |
| 2026-05-06 13:23 | -3.82497 | 105.18553 | 35844 ft | 465 kts | 332° |
| 2026-05-06 13:23 | -3.76850 | 105.15373 | 35845 ft | 465 kts | 332° |
| 2026-05-06 13:24 | -3.71180 | 105.12181 | 35844 ft | 464 kts | 332° |
| 2026-05-06 13:24 | -3.65558 | 105.09016 | 35844 ft | 464 kts | 332° |
| 2026-05-06 13:25 | -3.59930 | 105.05849 | 35844 ft | 464 kts | 332° |
| 2026-05-06 13:25 | -3.54253 | 105.02655 | 35845 ft | 464 kts | 332° |
| 2026-05-06 13:26 | -3.48616 | 104.99483 | 35844 ft | 463 kts | 332° |
| 2026-05-06 13:26 | -3.43004 | 104.96326 | 35845 ft | 463 kts | 332° |
| 2026-05-06 13:27 | -3.37376 | 104.93160 | 35844 ft | 463 kts | 332° |
| 2026-05-06 13:27 | -3.31710 | 104.89974 | 35844 ft | 463 kts | 332° |
| 2026-05-06 13:28 | -3.26069 | 104.86802 | 35844 ft | 463 kts | 332° |
| 2026-05-06 13:28 | -3.20451 | 104.83643 | 35845 ft | 462 kts | 332° |
| 2026-05-06 13:29 | -3.14828 | 104.80482 | 35845 ft | 462 kts | 332° |
| 2026-05-06 13:29 | -3.09222 | 104.77331 | 35846 ft | 462 kts | 332° |
| 2026-05-06 13:30 | -3.03588 | 104.74165 | 35848 ft | 462 kts | 332° |
| 2026-05-06 13:30 | -2.97992 | 104.71020 | 35847 ft | 463 kts | 332° |
| 2026-05-06 13:31 | -2.92305 | 104.67824 | 35847 ft | 463 kts | 332° |
| 2026-05-06 13:31 | -2.86883 | 104.64343 | 35856 ft | 464 kts | 320° |
| 2026-05-06 13:32 | -2.82217 | 104.59831 | 35852 ft | 465 kts | 317° |
| 2026-05-06 13:32 | -2.77598 | 104.55322 | 35854 ft | 465 kts | 317° |
| 2026-05-06 13:33 | -2.72948 | 104.50788 | 35853 ft | 466 kts | 317° |
| 2026-05-06 13:33 | -2.68310 | 104.46265 | 35850 ft | 467 kts | 317° |
| 2026-05-06 13:34 | -2.63651 | 104.41724 | 35850 ft | 466 kts | 316° |
| 2026-05-06 13:34 | -2.59012 | 104.37202 | 35857 ft | 467 kts | 316° |
| 2026-05-06 13:35 | -2.54354 | 104.32662 | 35853 ft | 466 kts | 317° |
| 2026-05-06 13:35 | -2.49690 | 104.28117 | 35848 ft | 465 kts | 317° |
| 2026-05-06 13:36 | -2.45037 | 104.23582 | 35846 ft | 466 kts | 317° |
| 2026-05-06 13:36 | -2.40402 | 104.19065 | 35852 ft | 466 kts | 317° |
| 2026-05-06 13:37 | -2.35742 | 104.14526 | 35850 ft | 466 kts | 317° |
| 2026-05-06 13:37 | -2.31106 | 104.10009 | 35845 ft | 467 kts | 317° |
| 2026-05-06 13:38 | -2.26453 | 104.05477 | 35844 ft | 466 kts | 317° |
| 2026-05-06 13:38 | -2.21799 | 104.00944 | 35846 ft | 466 kts | 317° |
| 2026-05-06 13:39 | -2.17150 | 103.96416 | 35846 ft | 466 kts | 317° |
| 2026-05-06 13:39 | -2.12518 | 103.91905 | 35846 ft | 465 kts | 317° |
| 2026-05-06 13:40 | -2.07862 | 103.87373 | 35846 ft | 466 kts | 316° |
| 2026-05-06 13:40 | -2.03222 | 103.82855 | 35853 ft | 467 kts | 316° |
| 2026-05-06 13:41 | -1.98549 | 103.78305 | 35846 ft | 466 kts | 316° |
| 2026-05-06 13:41 | -1.93918 | 103.73796 | 35849 ft | 467 kts | 316° |
| 2026-05-06 13:42 | -1.89249 | 103.69251 | 35851 ft | 466 kts | 316° |
| 2026-05-06 13:42 | -1.84597 | 103.64723 | 35850 ft | 465 kts | 317° |
| 2026-05-06 13:43 | -1.79938 | 103.60190 | 35848 ft | 466 kts | 316° |
| 2026-05-06 13:43 | -1.75283 | 103.55660 | 35849 ft | 467 kts | 316° |
| 2026-05-06 13:44 | -1.70633 | 103.51135 | 35847 ft | 467 kts | 316° |
| 2026-05-06 13:44 | -1.65997 | 103.46624 | 35849 ft | 467 kts | 316° |
| 2026-05-06 13:45 | -1.61334 | 103.42087 | 35849 ft | 467 kts | 316° |
| 2026-05-06 13:45 | -1.54330 | 103.35272 | 35850 ft | 467 kts | 316° |
| 2026-05-06 13:46 | -1.49650 | 103.30719 | 35846 ft | 467 kts | 316° |
| 2026-05-06 13:46 | -1.45011 | 103.26207 | 35849 ft | 468 kts | 316° |
| 2026-05-06 13:47 | -1.40340 | 103.21664 | 35848 ft | 468 kts | 316° |
| 2026-05-06 13:47 | -1.35656 | 103.17108 | 35853 ft | 468 kts | 316° |
| 2026-05-06 13:48 | -1.30997 | 103.12576 | 35863 ft | 468 kts | 316° |
| 2026-05-06 13:48 | -1.26309 | 103.08017 | 35872 ft | 468 kts | 316° |
| 2026-05-06 13:49 | -1.21655 | 103.03492 | 35871 ft | 467 kts | 316° |
| 2026-05-06 13:49 | -1.16993 | 102.98957 | 35872 ft | 468 kts | 316° |
| 2026-05-06 13:50 | -1.12295 | 102.94389 | 35866 ft | 468 kts | 316° |
| 2026-05-06 13:50 | -1.07633 | 102.89857 | 35861 ft | 469 kts | 316° |
| 2026-05-06 13:51 | -1.02941 | 102.85303 | 35863 ft | 469 kts | 316° |
| 2026-05-06 13:51 | -0.98259 | 102.80760 | 35862 ft | 468 kts | 316° |
| 2026-05-06 13:52 | -0.93601 | 102.76241 | 35866 ft | 468 kts | 316° |
| 2026-05-06 13:52 | -0.88900 | 102.71680 | 35866 ft | 468 kts | 316° |
| 2026-05-06 13:53 | -0.84223 | 102.67142 | 35863 ft | 469 kts | 316° |
| 2026-05-06 13:53 | -0.79568 | 102.62627 | 35864 ft | 469 kts | 316° |
| 2026-05-06 13:54 | -0.74878 | 102.58076 | 35857 ft | 469 kts | 316° |
| 2026-05-06 13:54 | -0.70185 | 102.53524 | 35855 ft | 469 kts | 316° |
| 2026-05-06 13:55 | -0.65504 | 102.48983 | 35857 ft | 469 kts | 316° |
| 2026-05-06 13:55 | -0.60819 | 102.44438 | 35854 ft | 470 kts | 316° |
| 2026-05-06 13:56 | -0.56145 | 102.39905 | 35856 ft | 470 kts | 316° |
| 2026-05-06 13:56 | -0.51462 | 102.35362 | 35854 ft | 469 kts | 316° |
| 2026-05-06 13:57 | -0.46758 | 102.30799 | 35849 ft | 469 kts | 316° |
| 2026-05-06 13:57 | -0.42046 | 102.26229 | 35849 ft | 470 kts | 316° |
| 2026-05-06 13:58 | -0.37373 | 102.21697 | 35849 ft | 471 kts | 316° |
| 2026-05-06 13:58 | -0.32649 | 102.17115 | 35848 ft | 471 kts | 316° |
| 2026-05-06 13:59 | -0.27940 | 102.12548 | 35850 ft | 470 kts | 316° |
| 2026-05-06 13:59 | -0.23211 | 102.07962 | 35852 ft | 471 kts | 316° |
| 2026-05-06 14:00 | -0.18511 | 102.03403 | 35849 ft | 472 kts | 316° |
| 2026-05-06 14:00 | -0.13780 | 101.98814 | 35851 ft | 472 kts | 316° |
| 2026-05-06 14:01 | -0.09084 | 101.94260 | 35853 ft | 472 kts | 316° |
| 2026-05-06 14:01 | -0.04362 | 101.89681 | 35854 ft | 472 kts | 316° |
| 2026-05-06 14:02 | 0.00366 | 101.85094 | 35853 ft | 472 kts | 316° |
| 2026-05-06 14:02 | 0.05110 | 101.80495 | 35857 ft | 471 kts | 316° |
| 2026-05-06 14:03 | 0.09822 | 101.75924 | 35867 ft | 472 kts | 316° |
| 2026-05-06 14:03 | 0.14513 | 101.71375 | 35869 ft | 471 kts | 316° |
| 2026-05-06 14:04 | 0.19218 | 101.66811 | 35867 ft | 471 kts | 316° |
| 2026-05-06 14:04 | 0.23948 | 101.62224 | 35863 ft | 471 kts | 316° |
| 2026-05-06 14:05 | 0.28660 | 101.57654 | 35863 ft | 470 kts | 316° |
| 2026-05-06 14:05 | 0.33346 | 101.53109 | 35860 ft | 470 kts | 316° |
| 2026-05-06 14:06 | 0.38189 | 101.48659 | 35860 ft | 469 kts | 324° |
| 2026-05-06 14:06 | 0.43956 | 101.45686 | 35867 ft | 466 kts | 342° |
| 2026-05-06 14:07 | 0.50277 | 101.44219 | 35864 ft | 463 kts | 358° |
| 2026-05-06 14:07 | 0.56644 | 101.44784 | 35864 ft | 460 kts | 12° |
| 2026-05-06 14:08 | 0.63033 | 101.45532 | 35853 ft | 461 kts | 6° |
| 2026-05-06 14:08 | 0.69488 | 101.45997 | 35852 ft | 461 kts | 5° |
| 2026-05-06 14:09 | 0.75853 | 101.46434 | 35858 ft | 461 kts | 5° |
| 2026-05-06 14:09 | 0.82343 | 101.46877 | 35854 ft | 462 kts | 5° |
| 2026-05-06 14:10 | 0.85487 | 101.47091 | 35840 ft | 451 kts | 5° |
| 2026-05-06 14:10 | 0.88628 | 101.47306 | 35842 ft | 442 kts | 5° |
| 2026-05-06 14:10 | 0.94756 | 101.47725 | 35838 ft | 443 kts | 5° |
| 2026-05-06 14:11 | 0.97860 | 101.47937 | 35366 ft | 447 kts | 5° |
| 2026-05-06 14:11 | 1.01003 | 101.48151 | 34888 ft | 446 kts | 5° |
| 2026-05-06 14:11 | 1.04108 | 101.48364 | 34391 ft | 446 kts | 5° |
| 2026-05-06 14:11 | 1.07201 | 101.48575 | 33898 ft | 447 kts | 5° |
| 2026-05-06 14:12 | 1.10332 | 101.48789 | 33401 ft | 448 kts | 5° |
| 2026-05-06 14:12 | 1.13451 | 101.49001 | 32904 ft | 451 kts | 5° |
| 2026-05-06 14:12 | 1.16597 | 101.49216 | 32411 ft | 453 kts | 5° |
| 2026-05-06 14:12 | 1.19760 | 101.49432 | 31919 ft | 454 kts | 5° |
| 2026-05-06 14:13 | 1.22918 | 101.49648 | 31418 ft | 455 kts | 5° |
| 2026-05-06 14:13 | 1.26106 | 101.49866 | 30909 ft | 455 kts | 5° |
| 2026-05-06 14:13 | 1.29266 | 101.50082 | 30405 ft | 456 kts | 5° |
| 2026-05-06 14:13 | 1.32422 | 101.50298 | 29901 ft | 453 kts | 5° |
| 2026-05-06 14:14 | 1.35557 | 101.50511 | 29399 ft | 449 kts | 5° |
| 2026-05-06 14:14 | 1.38675 | 101.50725 | 28901 ft | 444 kts | 5° |
| 2026-05-06 14:14 | 1.41735 | 101.50934 | 28415 ft | 440 kts | 5° |
| 2026-05-06 14:14 | 1.44807 | 101.51143 | 27933 ft | 437 kts | 6° |
| 2026-05-06 14:15 | 1.47819 | 101.51349 | 27452 ft | 433 kts | 6° |
| 2026-05-06 14:15 | 1.50808 | 101.51553 | 27388 ft | 427 kts | 6° |
| 2026-05-06 14:15 | 1.53816 | 101.51759 | 27397 ft | 430 kts | 6° |
| 2026-05-06 14:15 | 1.56824 | 101.51965 | 27009 ft | 435 kts | 6° |
| 2026-05-06 14:16 | 1.59831 | 101.52170 | 26507 ft | 431 kts | 6° |
| 2026-05-06 14:16 | 1.62827 | 101.52375 | 26004 ft | 426 kts | 6° |
| 2026-05-06 14:16 | 1.65733 | 101.52573 | 25514 ft | 421 kts | 6° |
| 2026-05-06 14:16 | 1.68666 | 101.52773 | 25022 ft | 416 kts | 6° |
| 2026-05-06 14:17 | 1.71534 | 101.52969 | 24545 ft | 413 kts | 6° |
| 2026-05-06 14:17 | 1.74415 | 101.53166 | 24066 ft | 410 kts | 6° |
| 2026-05-06 14:17 | 1.77237 | 101.53359 | 23597 ft | 408 kts | 6° |
| 2026-05-06 14:17 | 1.80081 | 101.53554 | 23135 ft | 405 kts | 6° |
| 2026-05-06 14:18 | 1.82894 | 101.53746 | 22678 ft | 401 kts | 6° |
| 2026-05-06 14:18 | 1.85660 | 101.53935 | 22223 ft | 398 kts | 6° |
| 2026-05-06 14:18 | 1.88399 | 101.54122 | 21765 ft | 394 kts | 6° |
| 2026-05-06 14:18 | 1.91161 | 101.54311 | 21305 ft | 391 kts | 6° |
| 2026-05-06 14:19 | 1.93818 | 101.54685 | 20836 ft | 385 kts | 21° |
| 2026-05-06 14:19 | 1.96104 | 101.56016 | 20412 ft | 376 kts | 45° |
| 2026-05-06 14:19 | 1.97577 | 101.58112 | 19954 ft | 372 kts | 69° |
| 2026-05-06 14:19 | 1.98035 | 101.60620 | 19495 ft | 369 kts | 89° |
| 2026-05-06 14:20 | 1.98391 | 101.63148 | 19016 ft | 367 kts | 73° |
| 2026-05-06 14:20 | 1.99256 | 101.65549 | 18445 ft | 366 kts | 69° |
| 2026-05-06 14:20 | 2.00231 | 101.67868 | 17835 ft | 363 kts | 67° |
| 2026-05-06 14:20 | 2.01235 | 101.70142 | 17238 ft | 359 kts | 66° |
| 2026-05-06 14:21 | 2.02248 | 101.72392 | 16639 ft | 355 kts | 66° |
| 2026-05-06 14:21 | 2.03265 | 101.74641 | 16025 ft | 350 kts | 66° |
| 2026-05-06 14:21 | 2.04251 | 101.76813 | 15337 ft | 338 kts | 66° |
| 2026-05-06 14:21 | 2.05203 | 101.78909 | 14713 ft | 327 kts | 66° |
| 2026-05-06 14:22 | 2.06128 | 101.80947 | 14085 ft | 317 kts | 66° |
| 2026-05-06 14:22 | 2.07016 | 101.82901 | 13469 ft | 309 kts | 66° |
| 2026-05-06 14:22 | 2.07891 | 101.84827 | 12847 ft | 302 kts | 66° |
| 2026-05-06 14:22 | 2.08755 | 101.86728 | 12231 ft | 296 kts | 66° |
| 2026-05-06 14:23 | 2.09597 | 101.88583 | 11611 ft | 291 kts | 66° |
| 2026-05-06 14:23 | 2.10123 | 101.90479 | 11023 ft | 284 kts | 92° |
| 2026-05-06 14:23 | 2.09757 | 101.92396 | 10551 ft | 275 kts | 105° |
| 2026-05-06 14:23 | 2.09242 | 101.94205 | 10119 ft | 267 kts | 105° |
| 2026-05-06 14:24 | 2.08729 | 101.95959 | 10046 ft | 262 kts | 106° |
| 2026-05-06 14:24 | 2.08211 | 101.97708 | 9965 ft | 258 kts | 105° |
| 2026-05-06 14:24 | 2.07984 | 101.99494 | 9736 ft | 264 kts | 92° |
| 2026-05-06 14:24 | 2.07925 | 102.01350 | 9625 ft | 268 kts | 91° |
| 2026-05-06 14:25 | 2.07867 | 102.03187 | 9577 ft | 267 kts | 91° |
| 2026-05-06 14:25 | 2.07808 | 102.05032 | 9357 ft | 269 kts | 91° |
| 2026-05-06 14:25 | 2.07749 | 102.06889 | 8994 ft | 270 kts | 91° |
| 2026-05-06 14:25 | 2.07763 | 102.08761 | 8617 ft | 267 kts | 77° |
| 2026-05-06 14:26 | 2.08620 | 102.10351 | 8284 ft | 262 kts | 42° |
| 2026-05-06 14:26 | 2.10233 | 102.11133 | 7966 ft | 259 kts | 6° |
| 2026-05-06 14:26 | 2.11973 | 102.10822 | 7639 ft | 257 kts | 330° |
| 2026-05-06 14:26 | 2.13511 | 102.09923 | 7303 ft | 254 kts | 336° |
| 2026-05-06 14:27 | 2.15211 | 102.09476 | 7069 ft | 245 kts | 351° |
| 2026-05-06 14:27 | 2.16845 | 102.09158 | 7023 ft | 236 kts | 349° |
| 2026-05-06 14:27 | 2.18419 | 102.08699 | 7002 ft | 239 kts | 328° |
| 2026-05-06 14:27 | 2.19798 | 102.07725 | 6841 ft | 243 kts | 326° |
| 2026-05-06 14:28 | 2.21210 | 102.06762 | 6600 ft | 242 kts | 328° |
| 2026-05-06 14:28 | 2.22603 | 102.05858 | 6363 ft | 240 kts | 328° |
| 2026-05-06 14:28 | 2.24013 | 102.04965 | 6112 ft | 237 kts | 329° |
| 2026-05-06 14:28 | 2.25413 | 102.04092 | 5851 ft | 235 kts | 329° |
| 2026-05-06 14:29 | 2.26803 | 102.03231 | 5596 ft | 234 kts | 329° |
| 2026-05-06 14:29 | 2.28189 | 102.02375 | 5434 ft | 232 kts | 329° |
| 2026-05-06 14:29 | 2.29558 | 102.01532 | 5306 ft | 233 kts | 329° |
| 2026-05-06 14:29 | 2.30954 | 102.00674 | 5182 ft | 234 kts | 329° |
| 2026-05-06 14:30 | 2.32339 | 101.99822 | 5060 ft | 234 kts | 329° |
| 2026-05-06 14:30 | 2.33748 | 101.98955 | 4926 ft | 234 kts | 329° |
| 2026-05-06 14:30 | 2.35134 | 101.98103 | 4796 ft | 234 kts | 329° |
| 2026-05-06 14:30 | 2.36515 | 101.97254 | 4670 ft | 233 kts | 329° |
| 2026-05-06 14:31 | 2.37908 | 101.96397 | 4553 ft | 229 kts | 329° |
| 2026-05-06 14:31 | 2.39223 | 101.95591 | 4514 ft | 215 kts | 331° |
| 2026-05-06 14:31 | 2.40486 | 101.94854 | 4434 ft | 204 kts | 330° |
| 2026-05-06 14:31 | 2.41684 | 101.94125 | 4350 ft | 203 kts | 329° |
| 2026-05-06 14:32 | 2.42934 | 101.93343 | 4350 ft | 215 kts | 329° |
| 2026-05-06 14:32 | 2.44212 | 101.92526 | 4326 ft | 218 kts | 328° |
| 2026-05-06 14:32 | 2.45509 | 101.91685 | 4290 ft | 219 kts | 328° |
| 2026-05-06 14:32 | 2.46779 | 101.90853 | 4251 ft | 219 kts | 328° |
| 2026-05-06 14:33 | 2.48061 | 101.90009 | 4207 ft | 219 kts | 328° |
| 2026-05-06 14:33 | 2.49340 | 101.89162 | 4162 ft | 219 kts | 328° |
| 2026-05-06 14:33 | 2.50620 | 101.88313 | 4121 ft | 220 kts | 328° |
| 2026-05-06 14:33 | 2.51908 | 101.87457 | 4084 ft | 220 kts | 328° |
| 2026-05-06 14:34 | 2.53185 | 101.86608 | 4041 ft | 220 kts | 327° |
| 2026-05-06 14:34 | 2.54457 | 101.85762 | 3998 ft | 219 kts | 327° |
| 2026-05-06 14:34 | 2.55735 | 101.84911 | 3956 ft | 219 kts | 327° |
| 2026-05-06 14:34 | 2.57002 | 101.84067 | 3915 ft | 219 kts | 327° |
| 2026-05-06 14:35 | 2.58264 | 101.83226 | 3774 ft | 218 kts | 327° |
| 2026-05-06 14:35 | 2.59517 | 101.82391 | 3567 ft | 212 kts | 327° |
| 2026-05-06 14:35 | 2.60742 | 101.81577 | 3289 ft | 209 kts | 327° |
| 2026-05-06 14:35 | 2.61932 | 101.80783 | 3036 ft | 204 kts | 327° |
| 2026-05-06 14:36 | 2.63107 | 101.80001 | 2759 ft | 200 kts | 328° |
| 2026-05-06 14:36 | 2.64263 | 101.79231 | 2480 ft | 192 kts | 328° |
| 2026-05-06 14:36 | 2.65328 | 101.78521 | 2213 ft | 178 kts | 328° |
| 2026-05-06 14:36 | 2.66338 | 101.77849 | 1979 ft | 169 kts | 328° |
| 2026-05-06 14:37 | 2.67319 | 101.77197 | 1773 ft | 169 kts | 328° |
| 2026-05-06 14:37 | 2.68306 | 101.76539 | 1564 ft | 171 kts | 328° |
| 2026-05-06 14:37 | 2.69302 | 101.75875 | 1376 ft | 165 kts | 328° |
| 2026-05-06 14:37 | 2.70222 | 101.75262 | 1142 ft | 152 kts | 328° |
| 2026-05-06 14:38 | 2.71075 | 101.74694 | 931 ft | 142 kts | 328° |
| 2026-05-06 14:38 | 2.71893 | 101.74150 | 758 ft | 141 kts | 329° |
| 2026-05-06 14:38 | 2.72712 | 101.73605 | 585 ft | 142 kts | 328° |
| 2026-05-06 14:38 | 2.73542 | 101.73051 | 404 ft | 142 kts | 328° |
| 2026-05-06 14:39 | 2.74365 | 101.72527 | 209 ft | 141 kts | 328° |
| 2026-05-06 14:39 | 2.75170 | 101.71981 | 77 ft | 135 kts | 329° |
| 2026-05-06 14:39 | 2.75856 | 101.71530 | 74 ft | 93 kts | 327° |
| 2026-05-06 14:39 | 2.76264 | 101.71255 | 74 ft | 48 kts | 326° |
| 2026-05-06 14:40 | 2.76449 | 101.71127 | 74 ft | 24 kts | 319° |
| 2026-05-06 14:40 | 2.76549 | 101.70978 | 74 ft | 20 kts | 295° |
| 2026-05-06 14:40 | 2.76582 | 101.70905 | 74 ft | 11 kts | 291° |
| 2026-05-06 14:40 | 2.76560 | 101.70847 | 74 ft | 9 kts | 201° |
| 2026-05-06 14:41 | 2.76495 | 101.70864 | 74 ft | 6 kts | 146° |
| 2026-05-06 14:41 | 2.76457 | 101.70889 | 74 ft | 7 kts | 146° |
| 2026-05-06 14:41 | 2.76413 | 101.70918 | 74 ft | 8 kts | 146° |
| 2026-05-06 14:41 | 2.76382 | 101.70940 | 74 ft | 2 kts | 146° |
| 2026-05-06 14:42 | 2.76365 | 101.70950 | 74 ft | 3 kts | 146° |
| 2026-05-06 14:42 | 2.76338 | 101.70969 | 74 ft | 5 kts | 146° |
| 2026-05-06 14:42 | 2.76296 | 101.70997 | 74 ft | 9 kts | 148° |
| 2026-05-06 14:42 | 2.76229 | 101.71023 | 74 ft | 10 kts | 165° |
| 2026-05-06 14:43 | 2.76162 | 101.71040 | 74 ft | 11 kts | 165° |
| 2026-05-06 14:43 | 2.76079 | 101.71053 | 74 ft | 8 kts | 171° |
| 2026-05-06 14:43 | 2.76016 | 101.71075 | 74 ft | 11 kts | 156° |
| 2026-05-06 14:43 | 2.75944 | 101.71120 | 74 ft | 13 kts | 145° |
| 2026-05-06 14:44 | 2.75860 | 101.71178 | 74 ft | 10 kts | 148° |
| 2026-05-06 14:44 | 2.75787 | 101.71224 | 74 ft | 14 kts | 147° |
| 2026-05-06 14:44 | 2.75692 | 101.71288 | 74 ft | 18 kts | 146° |